createdAt,value
2023-03-06T00:00:58.614Z,98339.66
2023-03-06T00:03:26.645Z,98327.09
2023-03-06T00:05:53.845Z,98330.03
2023-03-06T00:08:20.631Z,98328.41
2023-03-06T00:10:47.866Z,98326.44
2023-03-06T00:13:16.170Z,98319.88
2023-03-06T00:15:44.886Z,98312.81
2023-03-06T00:18:13.845Z,98309.19
2023-03-06T00:20:42.570Z,98300.47
2023-03-06T00:23:10.518Z,98297.81
2023-03-06T00:25:37.037Z,98302.47
2023-03-06T00:28:05.719Z,98297.88
2023-03-06T00:30:32.302Z,98294.56
2023-03-06T00:32:59.290Z,98297.22
2023-03-06T00:35:26.791Z,98290.59
2023-03-06T00:37:53.389Z,98287.28
2023-03-06T00:40:21.447Z,98288.41
2023-03-06T00:42:48.383Z,98291.53
2023-03-06T00:45:15.130Z,98289.03
2023-03-06T00:47:41.958Z,98289.88
2023-03-06T00:50:09.791Z,98298.44
2023-03-06T00:52:36.263Z,98298.00
2023-03-06T00:55:03.387Z,98295.19
2023-03-06T00:57:29.843Z,98283.47
2023-03-06T01:00:03.680Z,98287.88
2023-03-06T01:02:30.180Z,98287.63
2023-03-06T01:04:56.987Z,98294.09
2023-03-06T01:07:24.968Z,98289.34
2023-03-06T01:09:53.032Z,98291.97
2023-03-06T01:12:23.639Z,98287.41
2023-03-06T01:14:52.644Z,98290.84
2023-03-06T01:17:19.018Z,98283.25
2023-03-06T01:19:45.429Z,98285.25
2023-03-06T01:22:12.253Z,98276.66
2023-03-06T01:24:39.994Z,98267.22
2023-03-06T01:27:09.317Z,98277.56
2023-03-06T01:29:35.761Z,98273.59
2023-03-06T01:32:02.395Z,98275.94
2023-03-06T01:34:30.115Z,98284.19
2023-03-06T01:36:56.492Z,98282.22
2023-03-06T01:39:22.900Z,98268.06
2023-03-06T01:41:49.628Z,98266.94
2023-03-06T01:44:16.056Z,98265.59
2023-03-06T01:46:44.540Z,98258.66
2023-03-06T01:49:28.379Z,98259.16
2023-03-06T01:52:03.479Z,98262.75
2023-03-06T01:54:34.374Z,98255.47
2023-03-06T01:57:04.005Z,98261.06
2023-03-06T01:59:32.598Z,98272.91
2023-03-06T02:02:01.793Z,98266.00
2023-03-06T02:04:29.705Z,98255.41
2023-03-06T02:06:58.623Z,98260.00
2023-03-06T02:09:26.624Z,98261.16
2023-03-06T02:11:53.057Z,98248.94
2023-03-06T02:14:19.762Z,98258.88
2023-03-06T02:16:46.683Z,98264.00
2023-03-06T02:19:27.496Z,98259.38
2023-03-06T02:21:53.986Z,98246.22
2023-03-06T02:24:29.716Z,98245.72
2023-03-06T02:26:57.247Z,98246.19
2023-03-06T02:29:27.520Z,98235.28
2023-03-06T02:31:54.179Z,98243.16
2023-03-06T02:34:20.982Z,98246.47
2023-03-06T02:37:05.005Z,98246.31
2023-03-06T02:39:33.930Z,98237.28
2023-03-06T02:42:00.539Z,98239.09
2023-03-06T02:44:27.800Z,98234.66
2023-03-06T02:46:54.443Z,98236.00
2023-03-06T02:49:21.222Z,98239.78
2023-03-06T02:51:47.998Z,98233.97
2023-03-06T02:54:14.733Z,98229.03
2023-03-06T02:56:41.198Z,98226.19
2023-03-06T02:59:07.666Z,98231.75
2023-03-06T03:01:34.231Z,98238.81
2023-03-06T03:04:00.954Z,98239.50
2023-03-06T03:06:27.451Z,98237.69
2023-03-06T03:08:54.797Z,98239.63
2023-03-06T03:11:21.274Z,98234.16
2023-03-06T03:13:47.945Z,98235.84
2023-03-06T03:16:15.707Z,98236.78
2023-03-06T03:18:42.885Z,98240.16
2023-03-06T03:21:14.324Z,98235.44
2023-03-06T03:23:40.957Z,98245.66
2023-03-06T03:26:10.024Z,98235.13
2023-03-06T03:28:36.981Z,98244.28
2023-03-06T03:31:08.729Z,98239.28
2023-03-06T03:33:35.531Z,98243.19
2023-03-06T03:36:05.557Z,98245.28
2023-03-06T03:38:32.224Z,98248.59
2023-03-06T03:41:00.526Z,98240.53
2023-03-06T03:43:27.081Z,98236.97
2023-03-06T03:45:54.045Z,98228.53
2023-03-06T03:48:20.892Z,98220.97
2023-03-06T03:50:47.323Z,98214.31
2023-03-06T03:53:13.718Z,98216.31
2023-03-06T03:55:40.198Z,98226.81
2023-03-06T03:58:06.744Z,98225.38
2023-03-06T04:00:33.303Z,98216.97
2023-03-06T04:02:59.821Z,98211.56
2023-03-06T04:05:26.287Z,98210.75
2023-03-06T04:07:52.943Z,98208.47
2023-03-06T04:10:19.714Z,98199.06
2023-03-06T04:12:46.159Z,98191.03
2023-03-06T04:15:12.491Z,98194.34
2023-03-06T04:17:39.109Z,98187.09
2023-03-06T04:20:06.340Z,98182.53
2023-03-06T04:22:32.876Z,98185.00
2023-03-06T04:24:59.300Z,98187.31
2023-03-06T04:27:25.789Z,98196.06
2023-03-06T04:29:52.317Z,98194.25
2023-03-06T04:32:21.326Z,98197.84
2023-03-06T04:34:48.152Z,98186.75
2023-03-06T04:37:20.753Z,98195.09
2023-03-06T04:39:47.410Z,98194.56
2023-03-06T04:42:14.093Z,98190.97
2023-03-06T04:44:40.937Z,98190.97
2023-03-06T04:47:07.981Z,98199.66
2023-03-06T04:49:34.669Z,98197.88
2023-03-06T04:52:01.224Z,98196.22
2023-03-06T04:54:27.749Z,98190.44
2023-03-06T04:56:54.351Z,98190.22
2023-03-06T04:59:20.988Z,98182.03
2023-03-06T05:01:47.803Z,98191.72
2023-03-06T05:04:14.597Z,98181.22
2023-03-06T05:06:41.007Z,98187.28
2023-03-06T05:09:07.701Z,98188.09
2023-03-06T05:11:34.107Z,98186.31
2023-03-06T05:14:00.603Z,98189.09
2023-03-06T05:16:27.115Z,98179.03
2023-03-06T05:18:53.649Z,98178.06
2023-03-06T05:21:20.135Z,98190.91
2023-03-06T05:23:46.596Z,98196.69
2023-03-06T05:26:14.779Z,98203.38
2023-03-06T05:28:41.784Z,98197.28
2023-03-06T05:31:09.272Z,98186.78
2023-03-06T05:33:36.514Z,98184.28
2023-03-06T05:36:03.848Z,98185.78
2023-03-06T05:38:30.218Z,98180.38
2023-03-06T05:40:56.629Z,98189.09
2023-03-06T05:43:23.337Z,98184.28
2023-03-06T05:45:49.875Z,98183.63
2023-03-06T05:48:16.319Z,98188.88
2023-03-06T05:50:43.322Z,98193.31
2023-03-06T05:53:10.709Z,98192.78
2023-03-06T05:55:37.502Z,98195.56
2023-03-06T05:58:03.998Z,98209.84
2023-03-06T06:00:30.502Z,98210.94
2023-03-06T06:03:00.544Z,98202.53
2023-03-06T06:05:27.106Z,98207.97
2023-03-06T06:07:53.741Z,98216.66
2023-03-06T06:10:20.171Z,98215.69
2023-03-06T06:12:46.631Z,98205.16
2023-03-06T06:15:12.997Z,98213.88
2023-03-06T06:17:39.368Z,98208.31
2023-03-06T06:20:06.518Z,98212.31
2023-03-06T06:22:35.837Z,98214.66
2023-03-06T06:25:02.319Z,98216.00
2023-03-06T06:27:28.927Z,98209.44
2023-03-06T06:29:55.426Z,98222.00
2023-03-06T06:32:21.977Z,98216.97
2023-03-06T06:34:48.375Z,98208.09
2023-03-06T06:37:15.121Z,98202.69
2023-03-06T06:39:41.878Z,98202.06
2023-03-06T06:42:29.082Z,98206.03
2023-03-06T06:44:56.011Z,98204.91
2023-03-06T06:47:24.850Z,98202.28
2023-03-06T06:49:53.752Z,98203.66
2023-03-06T06:52:20.610Z,98201.97
2023-03-06T06:54:47.795Z,98190.50
2023-03-06T06:57:14.811Z,98185.56
2023-03-06T06:59:41.457Z,98178.97
2023-03-06T07:02:08.199Z,98182.44
2023-03-06T07:04:34.678Z,98188.59
2023-03-06T07:07:01.010Z,98182.72
2023-03-06T07:09:27.664Z,98175.13
2023-03-06T07:11:54.013Z,98169.19
2023-03-06T07:14:20.526Z,98169.84
2023-03-06T07:16:47.125Z,98180.22
2023-03-06T07:19:13.862Z,98161.34
2023-03-06T07:21:40.403Z,98170.25
2023-03-06T07:24:07.174Z,98170.56
2023-03-06T07:26:34.868Z,98164.47
2023-03-06T07:29:02.142Z,98166.50
2023-03-06T07:31:28.607Z,98179.19
2023-03-06T07:33:55.922Z,98187.06
2023-03-06T07:36:24.028Z,98186.63
2023-03-06T07:38:50.505Z,98197.47
2023-03-06T07:41:16.854Z,98196.03
2023-03-06T07:43:45.356Z,98196.47
2023-03-06T07:46:13.381Z,98197.03
2023-03-06T07:48:40.862Z,98189.13
2023-03-06T07:51:21.795Z,98189.81
2023-03-06T07:53:49.408Z,98186.38
2023-03-06T07:56:16.217Z,98170.59
2023-03-06T07:58:44.903Z,98164.19
2023-03-06T08:01:15.037Z,98152.00
2023-03-06T08:03:41.927Z,98147.91
2023-03-06T08:06:17.734Z,98155.16
2023-03-06T08:08:47.432Z,98155.66
2023-03-06T08:11:15.791Z,98120.00
2023-03-06T08:13:43.165Z,98092.84
2023-03-06T08:16:10.780Z,98084.78
2023-03-06T08:18:37.892Z,98097.78
2023-03-06T08:21:06.414Z,98090.50
2023-03-06T08:23:34.078Z,98090.72
2023-03-06T08:26:03.336Z,98080.34
2023-03-06T08:28:29.820Z,98079.19
2023-03-06T08:30:57.580Z,98073.56
2023-03-06T08:33:24.714Z,98073.63
2023-03-06T08:35:52.760Z,98058.94
2023-03-06T08:38:19.686Z,98049.19
2023-03-06T08:40:46.142Z,98026.53
2023-03-06T08:43:14.175Z,98006.97
2023-03-06T08:45:41.129Z,97986.78
2023-03-06T08:48:07.793Z,97959.78
2023-03-06T08:50:34.215Z,97958.94
2023-03-06T08:53:00.802Z,97957.09
2023-03-06T08:55:27.736Z,97949.41
2023-03-06T08:57:54.436Z,97959.44
2023-03-06T09:00:21.245Z,97943.34
2023-03-06T09:02:47.751Z,97933.84
2023-03-06T09:05:14.175Z,97920.53
2023-03-06T09:07:41.139Z,97893.53
2023-03-06T09:10:08.784Z,97856.16
2023-03-06T09:12:48.887Z,97845.81
2023-03-06T09:15:17.283Z,97837.28
2023-03-06T09:17:44.089Z,97826.47
2023-03-06T09:20:11.924Z,97825.66
2023-03-06T09:22:38.334Z,97827.34
2023-03-06T09:25:05.594Z,97825.72
2023-03-06T09:27:32.228Z,97819.81
2023-03-06T09:29:58.650Z,97818.03
2023-03-06T09:32:26.005Z,97811.94
2023-03-06T09:34:52.409Z,97809.28
2023-03-06T09:37:19.167Z,97804.41
2023-03-06T09:39:45.578Z,97802.47
2023-03-06T09:42:21.786Z,97809.69
2023-03-06T09:44:52.718Z,97801.41
2023-03-06T09:47:37.738Z,97807.09
2023-03-06T09:50:25.418Z,97809.06
2023-03-06T09:53:16.960Z,97799.22
2023-03-06T09:55:48.913Z,97803.59
2023-03-06T09:58:24.584Z,97801.19
2023-03-06T10:01:09.683Z,97802.03
2023-03-06T10:03:52.526Z,97803.03
2023-03-06T10:06:33.383Z,97796.19
2023-03-06T10:09:18.598Z,97806.22
2023-03-06T10:11:53.367Z,97804.22
2023-03-06T10:14:33.640Z,97801.78
2023-03-06T10:17:01.841Z,97808.41
2023-03-06T10:19:34.493Z,97802.03
2023-03-06T10:22:28.726Z,97800.59
2023-03-06T10:25:00.534Z,97800.47
2023-03-06T10:27:46.771Z,97794.34
2023-03-06T10:30:38.478Z,97798.31
2023-03-06T10:33:24.971Z,97796.88
2023-03-06T10:35:56.932Z,97801.41
2023-03-06T10:38:33.568Z,97796.66
2023-03-06T10:41:11.874Z,97789.44
2023-03-06T10:43:44.162Z,97798.84
2023-03-06T10:46:27.577Z,97802.25
2023-03-06T10:49:00.127Z,97801.34
2023-03-06T10:51:27.733Z,97808.53
2023-03-06T10:54:01.512Z,97797.22
2023-03-06T10:56:35.199Z,97798.47
2023-03-06T10:59:18.557Z,97805.69
2023-03-06T11:01:48.823Z,97799.03
2023-03-06T11:04:31.658Z,97796.38
2023-03-06T11:07:08.090Z,97797.38
2023-03-06T11:09:35.515Z,97796.19
2023-03-06T11:12:31.400Z,97804.41
2023-03-06T11:15:07.137Z,97800.75
2023-03-06T11:17:52.375Z,97800.81
2023-03-06T11:20:23.863Z,97790.22
2023-03-06T11:23:37.453Z,97799.25
2023-03-06T11:26:24.393Z,97788.19
2023-03-06T11:28:57.087Z,97787.00
2023-03-06T11:31:35.228Z,97789.38
2023-03-06T11:34:31.649Z,97796.06
2023-03-06T11:37:07.335Z,97789.16
2023-03-06T11:39:34.178Z,97791.81
2023-03-06T11:42:37.208Z,97790.53
2023-03-06T11:45:19.112Z,97780.63
2023-03-06T11:48:18.120Z,97781.81
2023-03-06T11:50:48.070Z,97771.31
2023-03-06T11:53:31.691Z,97769.16
2023-03-06T11:56:20.926Z,97757.88
2023-03-06T11:59:08.001Z,97768.81
2023-03-06T12:01:40.614Z,97759.00
2023-03-06T12:04:19.092Z,97763.13
2023-03-06T12:07:00.663Z,97757.94
2023-03-06T12:09:42.481Z,97749.97
2023-03-06T12:12:18.450Z,97745.47
2023-03-06T12:14:54.978Z,97741.56
2023-03-06T12:17:56.943Z,97749.16
2023-03-06T12:20:40.256Z,97730.72
2023-03-06T12:23:28.592Z,97737.06
2023-03-06T12:26:03.007Z,97740.91
2023-03-06T12:28:51.506Z,97738.19
2023-03-06T12:31:30.970Z,97734.69
2023-03-06T12:34:06.024Z,97729.31
2023-03-06T12:36:48.683Z,97734.63
2023-03-06T12:39:52.823Z,97729.94
2023-03-06T12:42:39.746Z,97727.91
2023-03-06T12:45:21.294Z,97723.41
2023-03-06T12:47:52.740Z,97730.16
2023-03-06T12:50:24.103Z,97723.03
2023-03-06T12:52:53.672Z,97725.69
2023-03-06T12:55:24.967Z,97720.09
2023-03-06T12:57:52.571Z,97715.53
2023-03-06T13:00:34.374Z,97716.09
2023-03-06T13:03:17.992Z,97713.78
2023-03-06T13:05:47.401Z,97707.84
2023-03-06T13:08:43.218Z,97706.25
2023-03-06T13:11:26.597Z,97701.94
2023-03-06T13:13:54.977Z,97708.25
2023-03-06T13:16:28.940Z,97703.22
2023-03-06T13:19:19.285Z,97703.22
2023-03-06T13:21:54.732Z,97700.78
2023-03-06T13:24:26.892Z,97704.06
2023-03-06T13:26:55.389Z,97710.22
2023-03-06T13:29:37.035Z,97708.69
2023-03-06T13:32:04.948Z,97702.09
2023-03-06T13:34:31.332Z,97703.13
2023-03-06T13:37:17.039Z,97705.47
2023-03-06T13:39:52.433Z,97702.38
2023-03-06T13:42:36.520Z,97700.69
2023-03-06T13:45:16.390Z,97696.97
2023-03-06T13:48:10.986Z,97700.66
2023-03-06T13:50:39.892Z,97697.53
2023-03-06T13:53:15.211Z,97699.59
2023-03-06T13:55:54.381Z,97702.03
2023-03-06T13:58:45.718Z,97700.63
2023-03-06T14:01:51.481Z,97695.88
2023-03-06T14:04:36.551Z,97705.28
2023-03-06T14:07:05.610Z,97690.81
2023-03-06T14:09:37.449Z,97700.34
2023-03-06T14:12:17.098Z,97697.84
2023-03-06T14:14:49.761Z,97694.25
2023-03-06T14:17:31.815Z,97689.97
2023-03-06T14:20:05.422Z,97685.97
2023-03-06T14:22:31.861Z,97689.50
2023-03-06T14:25:27.377Z,97681.81
2023-03-06T14:28:02.899Z,97682.88
2023-03-06T14:30:32.325Z,97680.84
2023-03-06T14:32:59.124Z,97686.97
2023-03-06T14:35:32.280Z,97681.69
2023-03-06T14:38:04.398Z,97682.28
2023-03-06T14:40:34.054Z,97682.53
2023-03-06T14:43:37.195Z,97683.81
2023-03-06T14:46:05.523Z,97685.53
2023-03-06T14:48:44.761Z,97677.63
2023-03-06T14:51:21.712Z,97675.28
2023-03-06T14:53:50.368Z,97681.94
2023-03-06T14:56:25.923Z,97679.16
2023-03-06T14:58:58.890Z,97677.53
2023-03-06T15:01:42.265Z,97681.31
2023-03-06T15:04:23.463Z,97685.22
2023-03-06T15:06:50.536Z,97681.00
2023-03-06T15:09:19.594Z,97682.06
2023-03-06T15:11:54.855Z,97681.34
2023-03-06T15:14:29.511Z,97682.09
2023-03-06T15:16:55.868Z,97685.22
2023-03-06T15:19:23.438Z,97684.03
2023-03-06T15:21:52.057Z,97678.31
2023-03-06T15:24:35.379Z,97675.34
2023-03-06T15:27:05.454Z,97671.25
2023-03-06T15:29:32.862Z,97684.31
2023-03-06T15:32:29.619Z,97679.34
2023-03-06T15:35:24.799Z,97670.81
2023-03-06T15:37:52.156Z,97679.78
2023-03-06T15:40:20.379Z,97670.34
2023-03-06T15:42:47.185Z,97665.97
2023-03-06T15:45:25.418Z,97665.28
2023-03-06T15:47:54.076Z,97669.16
2023-03-06T15:50:27.186Z,97668.78
2023-03-06T15:52:54.151Z,97667.13
2023-03-06T15:55:23.977Z,97669.16
2023-03-06T15:58:00.573Z,97670.91
2023-03-06T16:00:33.221Z,97675.56
2023-03-06T16:03:00.631Z,97672.94
2023-03-06T16:05:27.864Z,97670.06
2023-03-06T16:07:54.791Z,97675.75
2023-03-06T16:10:27.546Z,97681.25
2023-03-06T16:13:01.386Z,97682.81
2023-03-06T16:15:30.642Z,97679.34
2023-03-06T16:17:57.750Z,97687.66
2023-03-06T16:20:29.155Z,97691.22
2023-03-06T16:22:56.661Z,97689.31
2023-03-06T16:25:26.388Z,97691.53
2023-03-06T16:27:58.169Z,97694.16
2023-03-06T16:30:30.205Z,97687.25
2023-03-06T16:32:57.786Z,97696.09
2023-03-06T16:35:24.914Z,97695.28
2023-03-06T16:37:51.453Z,97691.31
2023-03-06T16:40:28.349Z,97692.56
2023-03-06T16:42:55.772Z,97698.22
2023-03-06T16:45:25.013Z,97714.09
2023-03-06T16:47:51.885Z,97700.63
2023-03-06T16:50:24.403Z,97711.56
2023-03-06T16:52:52.998Z,97709.28
2023-03-06T16:55:20.064Z,97714.56
2023-03-06T16:57:46.719Z,97712.09
2023-03-06T17:00:14.628Z,97721.03
2023-03-06T17:02:42.595Z,97722.88
2023-03-06T17:05:11.139Z,97727.06
2023-03-06T17:07:38.327Z,97725.44
2023-03-06T17:10:07.277Z,97730.06
2023-03-06T17:12:33.956Z,97733.72
2023-03-06T17:15:00.488Z,97734.88
2023-03-06T17:17:27.235Z,97743.78
2023-03-06T17:19:54.032Z,97741.06
2023-03-06T17:22:21.277Z,97746.53
2023-03-06T17:24:48.167Z,97744.91
2023-03-06T17:27:14.754Z,97748.72
2023-03-06T17:29:41.435Z,97756.66
2023-03-06T17:32:09.687Z,97756.28
2023-03-06T17:34:36.435Z,97765.19
2023-03-06T17:37:03.015Z,97759.91
2023-03-06T17:39:38.052Z,97766.22
2023-03-06T17:42:05.654Z,97770.69
2023-03-06T17:44:33.513Z,97773.69
2023-03-06T17:47:00.127Z,97772.41
2023-03-06T17:49:27.026Z,97772.41
2023-03-06T17:51:54.550Z,97783.13
2023-03-06T17:54:21.734Z,97776.03
2023-03-06T17:56:48.252Z,97791.06
2023-03-06T17:59:14.916Z,97792.69
2023-03-06T18:01:41.453Z,97792.06
2023-03-06T18:04:08.056Z,97795.06
2023-03-06T18:06:34.509Z,97798.53
2023-03-06T18:09:01.071Z,97799.03
2023-03-06T18:11:27.969Z,97806.81
2023-03-06T18:13:54.514Z,97797.59
2023-03-06T18:16:23.396Z,97798.06
2023-03-06T18:18:54.423Z,97800.88
2023-03-06T18:21:22.415Z,97799.41
2023-03-06T18:23:49.248Z,97807.50
2023-03-06T18:26:19.057Z,97811.97
2023-03-06T18:28:49.138Z,97811.16
2023-03-06T18:31:17.478Z,97807.50
2023-03-06T18:33:44.450Z,97823.34
2023-03-06T18:36:11.424Z,97829.66
2023-03-06T18:38:37.843Z,97832.63
2023-03-06T18:41:07.414Z,97819.44
2023-03-06T18:43:35.477Z,97831.34
2023-03-06T18:46:02.244Z,97826.25
2023-03-06T18:48:28.969Z,97816.50
2023-03-06T18:50:56.113Z,97818.47
2023-03-06T18:53:23.428Z,97833.69
2023-03-06T18:55:51.550Z,97829.28
2023-03-06T18:58:19.441Z,97830.94
2023-03-06T19:00:46.248Z,97834.41
2023-03-06T19:03:12.739Z,97839.84
2023-03-06T19:05:44.163Z,97838.00
2023-03-06T19:08:11.253Z,97844.66
2023-03-06T19:10:40.390Z,97842.38
2023-03-06T19:13:08.654Z,97852.25
2023-03-06T19:15:35.466Z,97843.06
2023-03-06T19:18:01.855Z,97853.63
2023-03-06T19:20:28.579Z,97851.97
2023-03-06T19:22:55.039Z,97856.25
2023-03-06T19:25:21.441Z,97855.44
2023-03-06T19:27:49.730Z,97849.50
2023-03-06T19:30:21.439Z,97848.41
2023-03-06T19:32:48.268Z,97846.13
2023-03-06T19:35:14.916Z,97853.84
2023-03-06T19:37:41.372Z,97849.56
2023-03-06T19:40:08.684Z,97852.22
2023-03-06T19:42:35.380Z,97851.22
2023-03-06T19:45:02.140Z,97856.16
2023-03-06T19:47:28.623Z,97850.88
2023-03-06T19:49:55.063Z,97849.44
2023-03-06T19:52:21.498Z,97846.81
2023-03-06T19:54:48.004Z,97846.81
2023-03-06T19:57:14.970Z,97843.50
2023-03-06T19:59:41.585Z,97839.03
2023-03-06T20:02:10.595Z,97832.25
2023-03-06T20:04:37.109Z,97827.31
2023-03-06T20:07:04.130Z,97825.03
2023-03-06T20:09:32.078Z,97825.19
2023-03-06T20:11:59.932Z,97819.44
2023-03-06T20:14:26.481Z,97819.44
2023-03-06T20:16:53.153Z,97826.53
2023-03-06T20:19:19.668Z,97827.56
2023-03-06T20:21:46.165Z,97830.34
2023-03-06T20:24:14.905Z,97835.63
2023-03-06T20:26:41.825Z,97825.88
2023-03-06T20:29:08.296Z,97820.13
2023-03-06T20:31:36.723Z,97820.13
2023-03-06T20:34:04.331Z,97817.69
2023-03-06T20:36:34.012Z,97817.69
2023-03-06T20:39:01.495Z,97809.94
2023-03-06T20:41:30.174Z,97809.94
2023-03-06T20:43:58.525Z,97816.03
2023-03-06T20:46:25.868Z,97817.22
2023-03-06T20:48:53.315Z,97815.56
2023-03-06T20:51:21.291Z,97818.53
2023-03-06T20:53:49.347Z,97816.91
2023-03-06T20:56:18.761Z,97816.91
2023-03-06T20:58:45.381Z,97821.19
2023-03-06T21:01:42.538Z,97819.53
2023-03-06T21:04:10.597Z,97816.09
2023-03-06T21:06:38.080Z,97815.91
2023-03-06T21:09:06.913Z,97807.16
2023-03-06T21:11:36.190Z,97813.25
2023-03-06T21:14:02.726Z,97816.75
2023-03-06T21:16:29.959Z,97813.44
2023-03-06T21:18:58.170Z,97812.97
2023-03-06T21:21:28.859Z,97814.63
2023-03-06T21:23:55.368Z,97807.69
2023-03-06T21:26:24.294Z,97809.22
2023-03-06T21:28:50.995Z,97815.97
2023-03-06T21:31:19.645Z,97815.16
2023-03-06T21:33:47.325Z,97816.94
2023-03-06T21:36:14.116Z,97809.03
2023-03-06T21:38:40.627Z,97805.75
2023-03-06T21:41:10.452Z,97815.50
2023-03-06T21:43:36.933Z,97811.03
2023-03-06T21:46:03.498Z,97806.72
2023-03-06T21:48:30.034Z,97815.63
2023-03-06T21:51:11.189Z,97815.28
2023-03-06T21:53:38.576Z,97815.28
2023-03-06T21:56:05.721Z,97822.41
2023-03-06T21:58:33.458Z,97817.81
2023-03-06T22:01:00.260Z,97825.53
2023-03-06T22:03:27.684Z,97817.00
2023-03-06T22:05:54.633Z,97824.25
2023-03-06T22:08:21.167Z,97818.97
2023-03-06T22:10:48.849Z,97814.00
2023-03-06T22:13:16.012Z,97812.34
2023-03-06T22:15:50.608Z,97810.22
2023-03-06T22:18:17.444Z,97807.06
2023-03-06T22:20:44.199Z,97804.31
2023-03-06T22:23:10.934Z,97806.13
2023-03-06T22:25:37.457Z,97801.19
2023-03-06T22:28:04.034Z,97808.28
2023-03-06T22:30:30.737Z,97812.41
2023-03-06T22:32:58.301Z,97802.66
2023-03-06T22:35:25.339Z,97800.84
2023-03-06T22:37:52.123Z,97800.69
2023-03-06T22:40:18.584Z,97797.72
2023-03-06T22:42:45.246Z,97793.25
2023-03-06T22:45:12.325Z,97780.22
2023-03-06T22:47:39.348Z,97780.56
2023-03-06T22:50:06.551Z,97778.94
2023-03-06T22:52:33.590Z,97779.59
2023-03-06T22:55:00.435Z,97770.38
2023-03-06T22:57:27.258Z,97778.47
2023-03-06T22:59:54.102Z,97782.38
2023-03-06T23:02:20.929Z,97769.22
2023-03-06T23:04:50.721Z,97767.91
2023-03-06T23:07:17.217Z,97760.63
2023-03-06T23:09:43.715Z,97755.22
2023-03-06T23:12:10.154Z,97760.94
2023-03-06T23:14:37.234Z,97759.47
2023-03-06T23:17:04.136Z,97765.56
2023-03-06T23:19:30.702Z,97759.66
2023-03-06T23:21:57.511Z,97749.94
2023-03-06T23:24:24.266Z,97746.28
2023-03-06T23:26:51.469Z,97746.81
2023-03-06T23:29:17.945Z,97749.28
2023-03-06T23:31:44.425Z,97745.81
2023-03-06T23:34:11.008Z,97732.28
2023-03-06T23:36:37.804Z,97738.38
2023-03-06T23:39:04.310Z,97730.00
2023-03-06T23:41:31.148Z,97735.28
2023-03-06T23:43:58.726Z,97735.94
2023-03-06T23:46:25.807Z,97731.47
2023-03-06T23:48:52.612Z,97729.66
2023-03-06T23:51:21.695Z,97735.75
2023-03-06T23:53:56.242Z,97727.38
2023-03-06T23:56:24.451Z,97729.19
2023-03-06T23:58:51.325Z,97731.00
